sensor_id;sensor_type;location;lat;lon;timestamp;P1;durP1;ratioP1;P2;durP2;ratioP2
31716;SDS011;18301;51.076;17.046;2022-12-18T00:01:47;46.88;;;16.95;;
31716;SDS011;18301;51.076;17.046;2022-12-18T00:06:49;38.90;;;15.15;;
31716;SDS011;18301;51.076;17.046;2022-12-18T00:11:51;42.67;;;16.05;;
31716;SDS011;18301;51.076;17.046;2022-12-18T00:16:53;41.30;;;16.13;;
31716;SDS011;18301;51.076;17.046;2022-12-18T00:21:54;43.05;;;14.88;;
31716;SDS011;18301;51.076;17.046;2022-12-18T00:26:56;45.78;;;15.48;;
31716;SDS011;18301;51.076;17.046;2022-12-18T00:31:57;42.30;;;15.65;;
31716;SDS011;18301;51.076;17.046;2022-12-18T00:36:59;34.58;;;13.85;;
31716;SDS011;18301;51.076;17.046;2022-12-18T00:42:00;38.78;;;15.20;;
31716;SDS011;18301;51.076;17.046;2022-12-18T00:47:20;41.15;;;13.73;;
31716;SDS011;18301;51.076;17.046;2022-12-18T00:52:22;37.90;;;14.85;;
31716;SDS011;18301;51.076;17.046;2022-12-18T00:57:23;39.47;;;14.10;;
31716;SDS011;18301;51.076;17.046;2022-12-18T01:02:24;43.55;;;15.00;;
31716;SDS011;18301;51.076;17.046;2022-12-18T01:07:26;36.92;;;14.25;;
31716;SDS011;18301;51.076;17.046;2022-12-18T01:12:28;35.90;;;14.13;;
31716;SDS011;18301;51.076;17.046;2022-12-18T01:17:29;35.97;;;13.07;;
31716;SDS011;18301;51.076;17.046;2022-12-18T01:22:30;33.95;;;13.13;;
31716;SDS011;18301;51.076;17.046;2022-12-18T01:27:33;42.10;;;14.30;;
31716;SDS011;18301;51.076;17.046;2022-12-18T01:32:35;39.65;;;14.93;;
31716;SDS011;18301;51.076;17.046;2022-12-18T01:37:36;36.65;;;13.23;;
31716;SDS011;18301;51.076;17.046;2022-12-18T01:42:37;40.85;;;14.45;;
31716;SDS011;18301;51.076;17.046;2022-12-18T01:47:46;35.42;;;13.20;;
31716;SDS011;18301;51.076;17.046;2022-12-18T01:52:51;38.85;;;14.57;;
31716;SDS011;18301;51.076;17.046;2022-12-18T01:57:57;42.22;;;15.48;;
31716;SDS011;18301;51.076;17.046;2022-12-18T02:03:00;36.85;;;14.73;;
31716;SDS011;18301;51.076;17.046;2022-12-18T02:13:53;36.70;;;12.02;;
31716;SDS011;18301;51.076;17.046;2022-12-18T02:19:08;35.40;;;12.55;;
31716;SDS011;18301;51.076;17.046;2022-12-18T02:29:51;33.97;;;12.38;;
31716;SDS011;18301;51.076;17.046;2022-12-18T02:34:59;39.45;;;14.98;;
31716;SDS011;18301;51.076;17.046;2022-12-18T02:40:04;37.95;;;13.98;;
31716;SDS011;18301;51.076;17.046;2022-12-18T02:45:06;37.47;;;13.35;;
31716;SDS011;18301;51.076;17.046;2022-12-18T02:55:18;35.03;;;13.18;;
31716;SDS011;18301;51.076;17.046;2022-12-18T03:05:47;37.58;;;13.82;;
31716;SDS011;18301;51.076;17.046;2022-12-18T03:10:58;32.03;;;12.82;;
31716;SDS011;18301;51.076;17.046;2022-12-18T03:16:03;32.23;;;12.03;;
31716;SDS011;18301;51.076;17.046;2022-12-18T03:21:08;35.47;;;13.52;;
31716;SDS011;18301;51.076;17.046;2022-12-18T03:26:13;33.25;;;13.20;;
31716;SDS011;18301;51.076;17.046;2022-12-18T03:31:18;37.53;;;14.18;;
31716;SDS011;18301;51.076;17.046;2022-12-18T03:36:23;42.30;;;14.07;;
31716;SDS011;18301;51.076;17.046;2022-12-18T03:51:49;37.97;;;13.50;;
31716;SDS011;18301;51.076;17.046;2022-12-18T03:57:21;37.63;;;13.60;;
31716;SDS011;18301;51.076;17.046;2022-12-18T04:02:24;37.30;;;12.57;;
31716;SDS011;18301;51.076;17.046;2022-12-18T04:07:26;32.30;;;12.63;;
31716;SDS011;18301;51.076;17.046;2022-12-18T04:12:28;39.67;;;13.55;;
31716;SDS011;18301;51.076;17.046;2022-12-18T04:17:31;35.17;;;14.15;;
31716;SDS011;18301;51.076;17.046;2022-12-18T04:22:32;40.55;;;13.45;;
31716;SDS011;18301;51.076;17.046;2022-12-18T04:27:34;34.72;;;14.25;;
31716;SDS011;18301;51.076;17.046;2022-12-18T04:32:35;33.45;;;13.63;;
31716;SDS011;18301;51.076;17.046;2022-12-18T04:37:37;37.20;;;14.23;;
31716;SDS011;18301;51.076;17.046;2022-12-18T04:42:39;38.13;;;14.65;;
31716;SDS011;18301;51.076;17.046;2022-12-18T04:47:41;38.45;;;13.82;;
31716;SDS011;18301;51.076;17.046;2022-12-18T04:52:43;37.20;;;14.45;;
31716;SDS011;18301;51.076;17.046;2022-12-18T04:57:45;36.70;;;13.20;;
31716;SDS011;18301;51.076;17.046;2022-12-18T05:02:47;34.67;;;12.25;;
31716;SDS011;18301;51.076;17.046;2022-12-18T05:07:48;37.65;;;13.40;;
31716;SDS011;18301;51.076;17.046;2022-12-18T05:12:50;30.40;;;12.60;;
31716;SDS011;18301;51.076;17.046;2022-12-18T05:18:01;37.50;;;13.60;;
31716;SDS011;18301;51.076;17.046;2022-12-18T05:23:04;32.20;;;13.23;;
31716;SDS011;18301;51.076;17.046;2022-12-18T05:28:06;31.23;;;13.15;;
31716;SDS011;18301;51.076;17.046;2022-12-18T05:33:07;34.58;;;12.90;;
31716;SDS011;18301;51.076;17.046;2022-12-18T05:38:09;34.75;;;13.70;;
31716;SDS011;18301;51.076;17.046;2022-12-18T05:43:10;36.63;;;13.48;;
31716;SDS011;18301;51.076;17.046;2022-12-18T05:48:18;38.08;;;14.45;;
31716;SDS011;18301;51.076;17.046;2022-12-18T05:53:20;39.85;;;14.75;;
31716;SDS011;18301;51.076;17.046;2022-12-18T05:58:21;37.60;;;15.75;;
31716;SDS011;18301;51.076;17.046;2022-12-18T06:03:23;41.45;;;16.48;;
31716;SDS011;18301;51.076;17.046;2022-12-18T06:08:32;47.53;;;19.05;;
31716;SDS011;18301;51.076;17.046;2022-12-18T06:13:33;53.42;;;19.08;;
31716;SDS011;18301;51.076;17.046;2022-12-18T06:18:38;45.03;;;18.45;;
31716;SDS011;18301;51.076;17.046;2022-12-18T06:23:39;46.00;;;18.92;;
31716;SDS011;18301;51.076;17.046;2022-12-18T06:28:41;44.63;;;17.70;;
31716;SDS011;18301;51.076;17.046;2022-12-18T06:33:43;48.50;;;17.92;;
31716;SDS011;18301;51.076;17.046;2022-12-18T06:38:44;50.78;;;20.77;;
31716;SDS011;18301;51.076;17.046;2022-12-18T06:43:46;51.55;;;20.63;;
31716;SDS011;18301;51.076;17.046;2022-12-18T06:48:48;62.55;;;24.25;;
31716;SDS011;18301;51.076;17.046;2022-12-18T06:53:51;51.13;;;20.63;;
31716;SDS011;18301;51.076;17.046;2022-12-18T06:58:52;53.08;;;20.83;;
31716;SDS011;18301;51.076;17.046;2022-12-18T07:03:54;54.75;;;21.38;;
31716;SDS011;18301;51.076;17.046;2022-12-18T07:08:56;53.75;;;22.08;;
31716;SDS011;18301;51.076;17.046;2022-12-18T07:13:58;61.63;;;22.85;;
31716;SDS011;18301;51.076;17.046;2022-12-18T07:19:00;51.47;;;20.38;;
31716;SDS011;18301;51.076;17.046;2022-12-18T07:24:01;60.50;;;23.42;;
31716;SDS011;18301;51.076;17.046;2022-12-18T07:29:02;53.30;;;22.30;;
31716;SDS011;18301;51.076;17.046;2022-12-18T07:34:04;53.45;;;21.17;;
31716;SDS011;18301;51.076;17.046;2022-12-18T07:39:05;60.08;;;23.25;;
31716;SDS011;18301;51.076;17.046;2022-12-18T07:44:09;56.28;;;24.63;;
31716;SDS011;18301;51.076;17.046;2022-12-18T07:49:11;54.92;;;21.63;;
31716;SDS011;18301;51.076;17.046;2022-12-18T07:54:13;43.60;;;18.65;;
31716;SDS011;18301;51.076;17.046;2022-12-18T07:59:14;42.42;;;17.23;;
31716;SDS011;18301;51.076;17.046;2022-12-18T08:04:16;37.72;;;16.55;;
31716;SDS011;18301;51.076;17.046;2022-12-18T08:09:17;39.80;;;16.83;;
31716;SDS011;18301;51.076;17.046;2022-12-18T08:14:19;40.42;;;17.65;;
31716;SDS011;18301;51.076;17.046;2022-12-18T08:19:20;42.38;;;17.50;;
31716;SDS011;18301;51.076;17.046;2022-12-18T08:24:22;39.53;;;17.42;;
31716;SDS011;18301;51.076;17.046;2022-12-18T08:29:23;39.90;;;16.85;;
31716;SDS011;18301;51.076;17.046;2022-12-18T08:34:25;41.95;;;17.13;;
31716;SDS011;18301;51.076;17.046;2022-12-18T08:39:26;44.25;;;17.75;;
31716;SDS011;18301;51.076;17.046;2022-12-18T08:44:28;58.30;;;21.90;;
31716;SDS011;18301;51.076;17.046;2022-12-18T08:49:38;45.55;;;18.70;;
31716;SDS011;18301;51.076;17.046;2022-12-18T08:54:40;41.25;;;17.33;;
31716;SDS011;18301;51.076;17.046;2022-12-18T08:59:41;46.78;;;18.50;;
31716;SDS011;18301;51.076;17.046;2022-12-18T09:04:43;46.33;;;19.85;;
31716;SDS011;18301;51.076;17.046;2022-12-18T09:09:47;44.63;;;17.80;;
31716;SDS011;18301;51.076;17.046;2022-12-18T09:14:48;39.65;;;16.63;;
31716;SDS011;18301;51.076;17.046;2022-12-18T09:19:49;39.67;;;16.15;;
31716;SDS011;18301;51.076;17.046;2022-12-18T09:24:51;38.95;;;16.73;;
31716;SDS011;18301;51.076;17.046;2022-12-18T09:29:53;37.42;;;17.65;;
31716;SDS011;18301;51.076;17.046;2022-12-18T09:34:54;46.10;;;18.42;;
31716;SDS011;18301;51.076;17.046;2022-12-18T09:39:55;39.35;;;16.20;;
31716;SDS011;18301;51.076;17.046;2022-12-18T09:44:57;44.55;;;18.88;;
31716;SDS011;18301;51.076;17.046;2022-12-18T09:50:04;46.55;;;18.27;;
31716;SDS011;18301;51.076;17.046;2022-12-18T09:55:25;50.45;;;18.92;;
31716;SDS011;18301;51.076;17.046;2022-12-18T10:00:37;45.50;;;19.15;;
31716;SDS011;18301;51.076;17.046;2022-12-18T10:10:51;46.45;;;18.98;;
31716;SDS011;18301;51.076;17.046;2022-12-18T10:15:58;42.67;;;17.15;;
31716;SDS011;18301;51.076;17.046;2022-12-18T10:21:12;43.63;;;17.15;;
31716;SDS011;18301;51.076;17.046;2022-12-18T10:26:19;42.08;;;18.00;;
31716;SDS011;18301;51.076;17.046;2022-12-18T10:31:23;50.58;;;19.75;;
31716;SDS011;18301;51.076;17.046;2022-12-18T10:36:25;46.88;;;17.98;;
31716;SDS011;18301;51.076;17.046;2022-12-18T10:41:27;46.75;;;18.58;;
31716;SDS011;18301;51.076;17.046;2022-12-18T10:46:29;51.05;;;20.08;;
31716;SDS011;18301;51.076;17.046;2022-12-18T10:51:32;49.05;;;19.48;;
31716;SDS011;18301;51.076;17.046;2022-12-18T10:56:36;51.17;;;19.50;;
31716;SDS011;18301;51.076;17.046;2022-12-18T11:01:52;53.92;;;18.98;;
31716;SDS011;18301;51.076;17.046;2022-12-18T11:07:03;59.10;;;21.35;;
31716;SDS011;18301;51.076;17.046;2022-12-18T11:12:15;62.22;;;22.75;;
31716;SDS011;18301;51.076;17.046;2022-12-18T11:17:19;50.83;;;20.65;;
31716;SDS011;18301;51.076;17.046;2022-12-18T11:22:28;53.90;;;20.95;;
31716;SDS011;18301;51.076;17.046;2022-12-18T11:27:32;54.45;;;19.20;;
31716;SDS011;18301;51.076;17.046;2022-12-18T11:32:35;43.25;;;16.70;;
31716;SDS011;18301;51.076;17.046;2022-12-18T11:37:40;42.75;;;15.70;;
31716;SDS011;18301;51.076;17.046;2022-12-18T11:42:46;40.90;;;15.93;;
31716;SDS011;18301;51.076;17.046;2022-12-18T11:48:29;49.72;;;18.77;;
31716;SDS011;18301;51.076;17.046;2022-12-18T11:53:31;40.33;;;15.77;;
31716;SDS011;18301;51.076;17.046;2022-12-18T12:03:50;49.53;;;19.55;;
31716;SDS011;18301;51.076;17.046;2022-12-18T12:09:35;50.38;;;21.25;;
31716;SDS011;18301;51.076;17.046;2022-12-18T12:14:53;57.97;;;21.10;;
31716;SDS011;18301;51.076;17.046;2022-12-18T12:20:21;56.08;;;21.25;;
31716;SDS011;18301;51.076;17.046;2022-12-18T12:30:51;55.85;;;20.73;;
31716;SDS011;18301;51.076;17.046;2022-12-18T12:41:13;50.55;;;20.92;;
31716;SDS011;18301;51.076;17.046;2022-12-18T12:46:37;52.38;;;20.65;;
31716;SDS011;18301;51.076;17.046;2022-12-18T12:51:47;56.83;;;21.02;;
31716;SDS011;18301;51.076;17.046;2022-12-18T13:02:28;52.33;;;23.02;;
31716;SDS011;18301;51.076;17.046;2022-12-18T13:07:54;69.25;;;25.48;;
31716;SDS011;18301;51.076;17.046;2022-12-18T13:13:02;71.40;;;25.30;;
31716;SDS011;18301;51.076;17.046;2022-12-18T13:18:24;85.80;;;30.52;;
31716;SDS011;18301;51.076;17.046;2022-12-18T13:23:30;59.47;;;22.48;;
31716;SDS011;18301;51.076;17.046;2022-12-18T13:33:48;60.85;;;21.95;;
31716;SDS011;18301;51.076;17.046;2022-12-18T13:49:40;61.00;;;23.25;;
31716;SDS011;18301;51.076;17.046;2022-12-18T13:54:45;53.47;;;19.50;;
31716;SDS011;18301;51.076;17.046;2022-12-18T13:59:52;69.05;;;24.55;;
31716;SDS011;18301;51.076;17.046;2022-12-18T14:04:53;65.22;;;25.67;;
31716;SDS011;18301;51.076;17.046;2022-12-18T14:09:56;57.35;;;22.40;;
31716;SDS011;18301;51.076;17.046;2022-12-18T14:20:29;59.72;;;21.58;;
31716;SDS011;18301;51.076;17.046;2022-12-18T14:25:32;60.42;;;22.77;;
31716;SDS011;18301;51.076;17.046;2022-12-18T14:30:36;60.95;;;23.13;;
31716;SDS011;18301;51.076;17.046;2022-12-18T14:35:55;65.47;;;24.33;;
31716;SDS011;18301;51.076;17.046;2022-12-18T14:41:02;65.00;;;22.88;;
31716;SDS011;18301;51.076;17.046;2022-12-18T14:51:36;59.78;;;22.98;;
31716;SDS011;18301;51.076;17.046;2022-12-18T14:56:42;61.42;;;20.52;;
31716;SDS011;18301;51.076;17.046;2022-12-18T15:01:48;64.27;;;20.83;;
31716;SDS011;18301;51.076;17.046;2022-12-18T15:07:06;57.13;;;22.05;;
31716;SDS011;18301;51.076;17.046;2022-12-18T15:12:26;59.85;;;23.13;;
31716;SDS011;18301;51.076;17.046;2022-12-18T15:17:34;61.28;;;22.15;;
31716;SDS011;18301;51.076;17.046;2022-12-18T15:22:36;64.43;;;23.92;;
31716;SDS011;18301;51.076;17.046;2022-12-18T15:27:38;60.92;;;22.55;;
31716;SDS011;18301;51.076;17.046;2022-12-18T15:32:39;61.78;;;22.70;;
31716;SDS011;18301;51.076;17.046;2022-12-18T15:37:41;61.30;;;22.60;;
31716;SDS011;18301;51.076;17.046;2022-12-18T15:42:43;72.28;;;24.35;;
31716;SDS011;18301;51.076;17.046;2022-12-18T15:48:10;60.88;;;21.45;;
31716;SDS011;18301;51.076;17.046;2022-12-18T15:53:21;68.72;;;24.98;;
31716;SDS011;18301;51.076;17.046;2022-12-18T15:58:22;76.15;;;26.35;;
31716;SDS011;18301;51.076;17.046;2022-12-18T16:03:24;72.00;;;24.80;;
31716;SDS011;18301;51.076;17.046;2022-12-18T16:08:26;82.88;;;30.10;;
31716;SDS011;18301;51.076;17.046;2022-12-18T16:13:27;83.88;;;31.25;;
31716;SDS011;18301;51.076;17.046;2022-12-18T16:18:29;102.30;;;36.70;;
31716;SDS011;18301;51.076;17.046;2022-12-18T16:23:30;86.53;;;30.85;;
31716;SDS011;18301;51.076;17.046;2022-12-18T16:28:32;85.60;;;31.00;;
31716;SDS011;18301;51.076;17.046;2022-12-18T16:33:33;90.85;;;32.83;;
31716;SDS011;18301;51.076;17.046;2022-12-18T16:38:35;83.97;;;30.52;;
31716;SDS011;18301;51.076;17.046;2022-12-18T16:43:36;81.28;;;29.35;;
31716;SDS011;18301;51.076;17.046;2022-12-18T16:48:38;93.15;;;34.15;;
31716;SDS011;18301;51.076;17.046;2022-12-18T16:53:39;88.03;;;32.67;;
31716;SDS011;18301;51.076;17.046;2022-12-18T16:58:42;85.55;;;29.85;;
31716;SDS011;18301;51.076;17.046;2022-12-18T17:03:49;171.68;;;61.25;;
31716;SDS011;18301;51.076;17.046;2022-12-18T17:09:11;127.95;;;42.10;;
31716;SDS011;18301;51.076;17.046;2022-12-18T17:14:17;94.65;;;34.22;;
31716;SDS011;18301;51.076;17.046;2022-12-18T17:19:20;106.03;;;37.83;;
31716;SDS011;18301;51.076;17.046;2022-12-18T17:24:22;119.20;;;36.88;;
31716;SDS011;18301;51.076;17.046;2022-12-18T17:29:23;92.93;;;32.72;;
31716;SDS011;18301;51.076;17.046;2022-12-18T17:34:25;81.95;;;28.88;;
31716;SDS011;18301;51.076;17.046;2022-12-18T17:39:26;80.82;;;26.95;;
31716;SDS011;18301;51.076;17.046;2022-12-18T17:44:28;118.20;;;39.35;;
31716;SDS011;18301;51.076;17.046;2022-12-18T17:49:30;102.03;;;32.92;;
31716;SDS011;18301;51.076;17.046;2022-12-18T17:54:31;75.57;;;28.55;;
31716;SDS011;18301;51.076;17.046;2022-12-18T17:59:33;93.15;;;33.78;;
31716;SDS011;18301;51.076;17.046;2022-12-18T18:04:34;93.32;;;32.88;;
31716;SDS011;18301;51.076;17.046;2022-12-18T18:09:36;86.30;;;30.27;;
31716;SDS011;18301;51.076;17.046;2022-12-18T18:14:38;84.93;;;32.13;;
31716;SDS011;18301;51.076;17.046;2022-12-18T18:19:39;104.28;;;41.05;;
31716;SDS011;18301;51.076;17.046;2022-12-18T18:24:43;216.07;;;58.30;;
31716;SDS011;18301;51.076;17.046;2022-12-18T18:29:45;170.23;;;47.97;;
31716;SDS011;18301;51.076;17.046;2022-12-18T18:34:46;137.60;;;38.67;;
31716;SDS011;18301;51.076;17.046;2022-12-18T18:39:48;145.40;;;42.65;;
31716;SDS011;18301;51.076;17.046;2022-12-18T18:44:49;194.15;;;54.28;;
31716;SDS011;18301;51.076;17.046;2022-12-18T18:49:50;122.72;;;40.63;;
31716;SDS011;18301;51.076;17.046;2022-12-18T18:54:52;111.88;;;36.72;;
31716;SDS011;18301;51.076;17.046;2022-12-18T19:00:13;139.55;;;43.63;;
31716;SDS011;18301;51.076;17.046;2022-12-18T19:05:15;134.80;;;43.38;;
31716;SDS011;18301;51.076;17.046;2022-12-18T19:10:17;149.68;;;43.53;;
31716;SDS011;18301;51.076;17.046;2022-12-18T19:15:18;116.05;;;37.95;;
31716;SDS011;18301;51.076;17.046;2022-12-18T19:20:20;109.63;;;37.92;;
31716;SDS011;18301;51.076;17.046;2022-12-18T19:25:22;104.93;;;36.15;;
31716;SDS011;18301;51.076;17.046;2022-12-18T19:30:40;102.95;;;36.78;;
31716;SDS011;18301;51.076;17.046;2022-12-18T19:35:41;113.35;;;39.22;;
31716;SDS011;18301;51.076;17.046;2022-12-18T19:40:43;116.30;;;42.70;;
31716;SDS011;18301;51.076;17.046;2022-12-18T19:45:45;120.00;;;42.53;;
31716;SDS011;18301;51.076;17.046;2022-12-18T19:50:46;111.25;;;37.67;;
31716;SDS011;18301;51.076;17.046;2022-12-18T19:55:48;109.28;;;39.10;;
31716;SDS011;18301;51.076;17.046;2022-12-18T20:00:50;110.38;;;37.63;;
31716;SDS011;18301;51.076;17.046;2022-12-18T20:05:51;112.97;;;37.95;;
31716;SDS011;18301;51.076;17.046;2022-12-18T20:10:53;96.95;;;34.33;;
31716;SDS011;18301;51.076;17.046;2022-12-18T20:15:54;109.57;;;39.92;;
31716;SDS011;18301;51.076;17.046;2022-12-18T20:20:56;117.13;;;38.53;;
31716;SDS011;18301;51.076;17.046;2022-12-18T20:26:00;107.68;;;36.80;;
31716;SDS011;18301;51.076;17.046;2022-12-18T20:31:02;110.25;;;38.22;;
31716;SDS011;18301;51.076;17.046;2022-12-18T20:36:07;110.57;;;37.85;;
31716;SDS011;18301;51.076;17.046;2022-12-18T20:41:17;103.40;;;37.22;;
31716;SDS011;18301;51.076;17.046;2022-12-18T20:46:20;113.10;;;37.70;;
31716;SDS011;18301;51.076;17.046;2022-12-18T20:51:22;116.05;;;38.08;;
31716;SDS011;18301;51.076;17.046;2022-12-18T20:56:24;161.88;;;50.10;;
31716;SDS011;18301;51.076;17.046;2022-12-18T21:01:27;111.95;;;39.15;;
31716;SDS011;18301;51.076;17.046;2022-12-18T21:06:29;116.05;;;39.05;;
31716;SDS011;18301;51.076;17.046;2022-12-18T21:11:31;118.70;;;40.72;;
31716;SDS011;18301;51.076;17.046;2022-12-18T21:16:52;115.80;;;40.53;;
31716;SDS011;18301;51.076;17.046;2022-12-18T21:21:55;177.50;;;52.85;;
31716;SDS011;18301;51.076;17.046;2022-12-18T21:26:59;157.55;;;48.83;;
31716;SDS011;18301;51.076;17.046;2022-12-18T21:32:02;156.85;;;45.88;;
31716;SDS011;18301;51.076;17.046;2022-12-18T21:37:04;118.50;;;37.92;;
31716;SDS011;18301;51.076;17.046;2022-12-18T21:42:05;152.23;;;46.58;;
31716;SDS011;18301;51.076;17.046;2022-12-18T21:47:25;118.43;;;40.00;;
31716;SDS011;18301;51.076;17.046;2022-12-18T21:52:27;131.35;;;43.70;;
31716;SDS011;18301;51.076;17.046;2022-12-18T21:57:32;115.53;;;37.67;;
31716;SDS011;18301;51.076;17.046;2022-12-18T22:02:34;125.45;;;39.90;;
31716;SDS011;18301;51.076;17.046;2022-12-18T22:07:36;115.05;;;39.10;;
31716;SDS011;18301;51.076;17.046;2022-12-18T22:12:37;111.45;;;38.05;;
31716;SDS011;18301;51.076;17.046;2022-12-18T22:17:44;107.63;;;35.95;;
31716;SDS011;18301;51.076;17.046;2022-12-18T22:22:46;127.10;;;41.53;;
31716;SDS011;18301;51.076;17.046;2022-12-18T22:27:48;123.03;;;38.30;;
31716;SDS011;18301;51.076;17.046;2022-12-18T22:33:08;114.93;;;38.20;;
31716;SDS011;18301;51.076;17.046;2022-12-18T22:38:10;115.63;;;39.67;;
31716;SDS011;18301;51.076;17.046;2022-12-18T22:43:11;135.43;;;43.25;;
31716;SDS011;18301;51.076;17.046;2022-12-18T22:48:13;141.07;;;44.47;;
31716;SDS011;18301;51.076;17.046;2022-12-18T22:53:16;136.98;;;45.60;;
31716;SDS011;18301;51.076;17.046;2022-12-18T22:58:17;128.05;;;43.33;;
31716;SDS011;18301;51.076;17.046;2022-12-18T23:03:19;126.68;;;41.50;;
31716;SDS011;18301;51.076;17.046;2022-12-18T23:08:21;126.05;;;41.65;;
31716;SDS011;18301;51.076;17.046;2022-12-18T23:13:22;137.07;;;43.28;;
31716;SDS011;18301;51.076;17.046;2022-12-18T23:18:24;132.35;;;44.92;;
31716;SDS011;18301;51.076;17.046;2022-12-18T23:23:25;123.35;;;42.20;;
31716;SDS011;18301;51.076;17.046;2022-12-18T23:28:27;138.82;;;45.80;;
31716;SDS011;18301;51.076;17.046;2022-12-18T23:33:30;143.73;;;47.97;;
31716;SDS011;18301;51.076;17.046;2022-12-18T23:38:32;135.50;;;46.22;;
31716;SDS011;18301;51.076;17.046;2022-12-18T23:43:34;141.63;;;47.50;;
31716;SDS011;18301;51.076;17.046;2022-12-18T23:48:36;140.98;;;45.33;;
31716;SDS011;18301;51.076;17.046;2022-12-18T23:53:39;141.13;;;47.90;;
31716;SDS011;18301;51.076;17.046;2022-12-18T23:58:41;145.98;;;48.58;;
